| time (UTC) | temp F | wind direction | speed knots | gust knots | rain 1hr in | rain 24hr in | rain mn in | humidity % | barometer mb |
| 20260509000035 | 67 | 313 | 0.0 | 4.3 | 0.00 | 0.00 | 0.00 | 29 | 1005.7 |
| 20260508234535 | 68 | 323 | 0.0 | 2.6 | 0.00 | 0.00 | 0.00 | 27 | 1005.8 |
| 20260508233035 | 69 | 315 | 0.0 | 3.5 | 0.00 | 0.00 | 0.00 | 27 | 1005.8 |
| 20260508231534 | 70 | 344 | 0.0 | 7.8 | 0.00 | 0.00 | 0.00 | 26 | 1005.9 |
| 20260508230038 | 72 | 350 | 0.0 | 2.6 | 0.00 | 0.00 | 0.00 | 26 | 1005.9 |
| 20260508224536 | 73 | 351 | 0.0 | 2.6 | 0.00 | 0.00 | 0.00 | 26 | 1005.7 |
| 20260508223035 | 73 | 350 | 0.0 | 5.2 | 0.00 | 0.00 | 0.00 | 27 | 1005.9 |
| 20260508221531 | 72 | 350 | 0.0 | 6.1 | 0.00 | 0.00 | 0.00 | 27 | 1006.0 |
| 20260508220104 | 73 | 355 | 0.9 | 3.5 | 0.00 | 0.00 | 0.00 | 26 | 1005.8 |
| 20260508214530 | 72 | 350 | 0.9 | 6.1 | 0.00 | 0.00 | 0.00 | 26 | 1005.4 |
| 20260508213034 | 72 | 348 | 0.0 | 5.2 | 0.00 | 0.00 | 0.00 | 27 | 1005.8 |
| 20260508211530 | 73 | 349 | 0.0 | 5.2 | 0.00 | 0.00 | 0.00 | 27 | 1006.2 |
| 20260508210027 | 73 | 351 | 0.9 | 5.2 | 0.00 | 0.00 | 0.00 | 26 | 1006.4 |
| 20260508204524 | 72 | 349 | 0.9 | 5.2 | 0.00 | 0.00 | 0.00 | 26 | 1006.8 |
| 20260508203023 | 72 | 348 | 0.9 | 5.2 | 0.00 | 0.00 | 0.00 | 27 | 1006.9 |
| 20260508201526 | 72 | 351 | 0.9 | 4.3 | 0.00 | 0.00 | 0.00 | 27 | 1007.0 |
| 20260508200022 | 72 | 348 | 0.0 | 7.8 | 0.00 | 0.00 | 0.00 | 29 | 1006.9 |
| 20260508194520 | 72 | 355 | 0.0 | 6.1 | 0.00 | 0.00 | 0.00 | 27 | 1007.1 |
| 20260508193020 | 72 | 321 | 0.0 | 3.5 | 0.00 | 0.00 | 0.00 | 30 | 1007.2 |
| 20260508191520 | 71 | 355 | 0.0 | 3.5 | 0.00 | 0.00 | 0.00 | 32 | 1007.4 |
| 20260508190015 | 71 | 348 | 0.0 | 5.2 | 0.00 | 0.00 | 0.00 | 29 | 1007.5 |
| 20260508184519 | 71 | 350 | 0.9 | 4.3 | 0.00 | 0.00 | 0.00 | 27 | 1007.9 |
| 20260508183013 | 71 | 348 | 0.0 | 3.5 | 0.00 | 0.00 | 0.00 | 31 | 1008.1 |
| 20260508181510 | 70 | 346 | 0.0 | 5.2 | 0.00 | 0.00 | 0.00 | 28 | 1008.6 |
| 20260508180010 | 69 | 348 | 0.9 | 6.1 | 0.00 | 0.00 | 0.00 | 28 | 1009.0 |
| 20260508174519 | 69 | 351 | 0.9 | 4.3 | 0.00 | 0.00 | 0.00 | 29 | 1009.2 |
| 20260508173007 | 69 | 350 | 0.0 | 5.2 | 0.00 | 0.00 | 0.00 | 31 | 1009.6 |
| 20260508171506 | 68 | 348 | 0.0 | 5.2 | 0.00 | 0.00 | 0.00 | 33 | 1009.8 |
| 20260508170004 | 68 | 347 | 0.9 | 4.3 | 0.00 | 0.00 | 0.00 | 31 | 1010.2 |
| 20260508164503 | 68 | 345 | 0.0 | 1.7 | 0.00 | 0.00 | 0.00 | 37 | 1010.5 |
| 20260508163002 | 68 | 340 | 0.0 | 2.6 | 0.00 | 0.00 | 0.00 | 36 | 1010.7 |
| 20260508161559 | 67 | 344 | 0.0 | 2.6 | 0.00 | 0.00 | 0.00 | 39 | 1010.8 |
| 20260508160103 | 66 | 343 | 0.0 | 2.6 | 0.00 | 0.00 | 0.00 | 39 | 1011.1 |
| 20260508154556 | 66 | 338 | 0.0 | 5.2 | 0.00 | 0.00 | 0.00 | 40 | 1011.2 |
| 20260508153100 | 65 | 343 | 0.0 | 4.3 | 0.00 | 0.00 | 0.00 | 39 | 1011.4 |
| 20260508151553 | 64 | 347 | 0.0 | 3.5 | 0.00 | 0.00 | 0.00 | 37 | 1011.5 |
| 20260508150150 | 63 | 348 | 0.0 | 3.5 | 0.00 | 0.00 | 0.00 | 37 | 1011.6 |
| 20260508144553 | 62 | 341 | 0.0 | 2.6 | 0.00 | 0.00 | 0.00 | 38 | 1011.5 |
| 20260508143053 | 62 | 336 | 0.0 | 6.1 | 0.00 | 0.00 | 0.00 | 37 | 1011.6 |
| 20260508141554 | 60 | 340 | 0.0 | 3.5 | 0.00 | 0.00 | 0.00 | 42 | 1011.6 |
| 20260508140040 | 58 | 346 | 0.0 | 4.3 | 0.00 | 0.00 | 0.00 | 44 | 1011.6 |
| 20260508134542 | 57 | 349 | 0.9 | 4.3 | 0.00 | 0.00 | 0.00 | 46 | 1011.6 |
| 20260508133031 | 54 | 347 | 0.0 | 4.3 | 0.00 | 0.00 | 0.00 | 52 | 1011.5 |
| 20260508131526 | 50 | 337 | 0.0 | 1.7 | 0.00 | 0.00 | 0.00 | 72 | 1011.5 |
| 20260508130021 | 47 | 304 | 0.0 | 1.7 | 0.00 | 0.00 | 0.00 | 86 | 1011.5 |
| 20260508124518 | 45 | 272 | 0.0 | 0.0 | 0.00 | 0.00 | 0.00 | 93 | 1011.4 |
| 20260508123014 | 43 | 262 | 0.0 | 0.0 | 0.00 | 0.00 | 0.00 | 96 | 1011.5 |
| 20260508121513 | 41 | 257 | 0.0 | 0.0 | 0.00 | 0.00 | 0.00 | 96 | 1011.4 |
| 20260508120012 | 40 | 257 | 0.0 | 0.0 | 0.00 | 0.00 | 0.00 | 96 | 1011.4 |
| 20260508114511 | 39 | 254 | 0.0 | 0.0 | 0.00 | 0.00 | 0.00 | 96 | 1011.3 |
| 20260508113015 | 38 | 254 | 0.0 | 0.0 | 0.00 | 0.00 | 0.00 | 95 | 1010.9 |
| 20260508111509 | 37 | 254 | 0.0 | 0.0 | 0.00 | 0.00 | 0.00 | 95 | 1010.8 |
| 20260508110015 | 37 | 255 | 0.0 | 0.0 | 0.00 | 0.00 | 0.00 | 95 | 1010.8 |
| 20260508104509 | 37 | 253 | 0.0 | 0.0 | 0.00 | 0.00 | 0.00 | 95 | 1010.7 |
| 20260508103006 | 37 | 254 | 0.0 | 0.0 | 0.00 | 0.00 | 0.00 | 94 | 1010.4 |
| 20260508101507 | 37 | 253 | 0.0 | 0.0 | 0.00 | 0.00 | 0.00 | 94 | 1010.3 |
| 20260508100005 | 37 | 253 | 0.0 | 0.0 | 0.00 | 0.00 | 0.00 | 94 | 1010.2 |
| 20260508094505 | 37 | 253 | 0.0 | 0.0 | 0.00 | 0.00 | 0.00 | 94 | 1010.5 |
| 20260508093003 | 37 | 253 | 0.0 | 0.0 | 0.00 | 0.00 | 0.00 | 94 | 1010.4 |
| 20260508091503 | 38 | 253 | 0.0 | 0.0 | 0.00 | 0.00 | 0.00 | 93 | 1010.5 |
| 20260508084559 | 38 | 253 | 0.0 | 0.0 | 0.00 | 0.00 | 0.00 | 93 | 1010.6 |
| 20260508083058 | 38 | 298 | 0.0 | 0.0 | 0.00 | 0.00 | 0.00 | 93 | 1010.6 |
| 20260508081618 | 38 | 336 | 0.0 | 0.0 | 0.00 | 0.00 | 0.00 | 93 | 1010.5 |
| 20260508080056 | 38 | 340 | 0.0 | 0.0 | 0.00 | 0.00 | 0.00 | 93 | 1010.6 |
| 20260508074554 | 39 | 343 | 0.0 | 0.0 | 0.00 | 0.00 | 0.00 | 92 | 1010.5 |
| 20260508073053 | 39 | 344 | 0.0 | 0.0 | 0.00 | 0.00 | 0.00 | 92 | 1010.4 |
| 20260508071557 | 39 | 346 | 0.0 | 0.0 | 0.00 | 0.00 | 0.00 | 92 | 1010.5 |
| 20260508070054 | 40 | 346 | 0.0 | 0.0 | 0.00 | 0.00 | 0.00 | 92 | 1010.6 |
| 20260508064550 | 40 | 347 | 0.0 | 0.0 | 0.00 | 0.00 | 0.00 | 91 | 1010.6 |
| 20260508063057 | 40 | 347 | 0.0 | 0.0 | 0.00 | 0.00 | 0.00 | 90 | 1010.5 |
| 20260508061553 | 40 | 348 | 0.0 | 0.0 | 0.00 | 0.00 | 0.00 | 90 | 1010.4 |
| 20260508060052 | 40 | 348 | 0.0 | 0.0 | 0.00 | 0.00 | 0.00 | 90 | 1010.6 |
| 20260508054544 | 41 | 348 | 0.0 | 0.0 | 0.00 | 0.00 | 0.00 | 89 | 1010.8 |
| 20260508053043 | 41 | 348 | 0.0 | 0.0 | 0.00 | 0.00 | 0.00 | 88 | 1010.8 |
| 20260508051540 | 42 | 348 | 0.0 | 0.0 | 0.00 | 0.00 | 0.00 | 87 | 1010.8 |
| 20260508050042 | 42 | 317 | 0.0 | 0.0 | 0.00 | 0.00 | 0.00 | 86 | 1010.7 |
| 20260508044537 | 42 | 339 | 0.0 | 0.0 | 0.00 | 0.00 | 0.00 | 85 | 1010.6 |
| 20260508043035 | 43 | 343 | 0.0 | 0.0 | 0.00 | 0.00 | 0.00 | 84 | 1010.6 |
| 20260508041535 | 43 | 346 | 0.0 | 0.0 | 0.00 | 0.00 | 0.00 | 83 | 1010.6 |
| 20260508040038 | 43 | 348 | 0.0 | 0.0 | 0.00 | 0.00 | 0.00 | 81 | 1010.6 |
| 20260508034533 | 44 | 348 | 0.0 | 0.0 | 0.00 | 0.00 | 0.00 | 78 | 1010.7 |
| 20260508033032 | 45 | 349 | 0.0 | 0.0 | 0.00 | 0.00 | 0.00 | 75 | 1010.7 |
| 20260508031536 | 45 | 350 | 0.0 | 0.0 | 0.00 | 0.00 | 0.00 | 72 | 1010.9 |
| 20260508030031 | 46 | 350 | 0.0 | 0.0 | 0.00 | 0.00 | 0.00 | 69 | 1010.7 |
| 20260508024544 | 47 | 350 | 0.0 | 0.0 | 0.00 | 0.00 | 0.00 | 68 | 1010.6 |
| 20260508023032 | 48 | 350 | 0.0 | 0.0 | 0.00 | 0.00 | 0.00 | 64 | 1010.6 |
| 20260508021530 | 49 | 350 | 0.0 | 0.0 | 0.00 | 0.00 | 0.00 | 61 | 1010.5 |
| 20260508020029 | 50 | 351 | 0.0 | 0.0 | 0.00 | 0.00 | 0.00 | 56 | 1010.4 |
| 20260508014532 | 51 | 351 | 0.0 | 0.0 | 0.00 | 0.00 | 0.00 | 52 | 1010.0 |
| 20260508013028 | 53 | 351 | 0.0 | 0.0 | 0.00 | 0.00 | 0.00 | 49 | 1010.0 |
| 20260508011527 | 54 | 351 | 0.0 | 0.0 | 0.00 | 0.00 | 0.00 | 44 | 1009.8 |
| 20260508010033 | 55 | 351 | 0.0 | 0.0 | 0.00 | 0.00 | 0.00 | 41 | 1009.4 |
| 20260508004526 | 57 | 351 | 0.0 | 0.9 | 0.00 | 0.00 | 0.00 | 37 | 1009.4 |
| 20260508003025 | 58 | 351 | 0.0 | 0.0 | 0.00 | 0.00 | 0.00 | 34 | 1009.4 |
| 20260508001526 | 59 | 351 | 0.0 | 2.6 | 0.00 | 0.00 | 0.00 | 30 | 1009.1 |